Indiana, PA

2:28 AM EST on February 06, 2016 (GMT -0500)
Indiana County-Stewart

Weather History for KIDI - March, 2013

Change the Weather History Date:

Sunday, March 10, 2013

  Actual Average Record
Temperature  
Mean Temperature 53 °F -  
Max Temperature 62 °F 48 °F 74 °F (1986)
Min Temperature 44 °F 26 °F -1 °F (1984)
Degree Days  
Heating Degree Days 12    
Growing Degree Days 3 (Base 50)    
Moisture  
Dew Point 26 °F    
Average Humidity 35    
Maximum Humidity 41    
Minimum Humidity 29    
Precipitation  
Precipitation 0.00 in - - ()
Sea Level Pressure  
Sea Level Pressure 30.12 in    
Wind  
Wind Speed 9 mph (South)    
Max Wind Speed 14 mph    
Max Gust Speed 20 mph    
Visibility 10 miles    
Events      
Averages and records for this station are not official NWS values.
T = Trace of Precipitation, MM = Missing Value Source: NWS Daily Summary

Daily Weather History Graph

Daily Weather History Graph

Search for Another Location

Airport or City:

Trip Planner

Search our weather history database for the weather conditions in past years. The results will help you decide how hot, cold, wet, or windy it might be!

Date:

Astronomy

Mar. 10, 2013 Rise Set
Actual Time 7:35 AM EDT 7:18 PM EDT
Civil Twilight 7:08 AM EDT 7:45 PM EDT
Nautical Twilight 6:36 AM EDT 8:17 PM EDT
Astronomical Twilight 6:05 AM EDT 8:49 PM EDT
Moon 6:34 AM EDT (3/10) 6:23 PM EDT (3/10)
Length of Visible Light 12h 36m
Length of Day
11h 42m
Waning Crescent, 2% of the Moon is Illuminated
Mar 10
Waning Crescent
Mar 11
New
Mar 19
First Quarter
Mar 27
Full
Apr 3
Last Quarter

Hourly Weather History & Observations

Time (EDT) Temp. Windchill Dew Point Humidity Pressure Visibility Wind Dir Wind Speed Gust Speed Precip Events Conditions
12:15 AM 46.4 °F 40.7 °F 21.2 °F 37% 30.19 in 10.0 mi South 12.7 mph 19.6 mph N/A   Unknown
12:35 AM 46.4 °F 40.7 °F 19.4 °F 34% 30.19 in 10.0 mi SSE 12.7 mph 17.3 mph N/A   Unknown
12:55 AM 46.4 °F 41.1 °F 21.2 °F 37% 30.19 in 10.0 mi South 11.5 mph 16.1 mph N/A   Unknown
1:15 AM 46.4 °F 41.9 °F 21.2 °F 37% 30.20 in 10.0 mi South 9.2 mph 16.1 mph N/A   Unknown
1:35 AM 44.6 °F 39.7 °F 21.2 °F 39% 30.19 in 10.0 mi South 9.2 mph - N/A   Unknown
1:55 AM 46.4 °F 42.9 °F 21.2 °F 37% 30.18 in 10.0 mi South 6.9 mph - N/A   Unknown
3:15 AM 46.4 °F 42.4 °F 21.2 °F 37% 30.17 in 10.0 mi South 8.1 mph 16.1 mph N/A   Unknown
3:35 AM 46.4 °F 43.5 °F 21.2 °F 37% 30.16 in 10.0 mi South 5.8 mph - N/A   Unknown
3:55 AM 46.4 °F 42.4 °F 21.2 °F 37% 30.16 in 10.0 mi South 8.1 mph - N/A   Unknown
4:15 AM 46.4 °F 43.5 °F 21.2 °F 37% 30.17 in 10.0 mi South 5.8 mph - N/A   Unknown
4:35 AM 46.4 °F 42.9 °F 21.2 °F 37% 30.16 in 10.0 mi SSE 6.9 mph - N/A   Unknown
4:55 AM 46.4 °F 43.5 °F 21.2 °F 37% 30.16 in 10.0 mi South 5.8 mph - N/A   Unknown
5:15 AM 46.4 °F 42.4 °F 21.2 °F 37% 30.16 in 10.0 mi South 8.1 mph - N/A   Unknown
5:35 AM 46.4 °F 41.9 °F 21.2 °F 37% 30.16 in 10.0 mi South 9.2 mph - N/A   Unknown
5:55 AM 46.4 °F 41.1 °F 21.2 °F 37% 30.15 in 10.0 mi SSE 11.5 mph 16.1 mph N/A   Unknown
6:15 AM 46.4 °F 41.1 °F 21.2 °F 37% 30.15 in 10.0 mi SSE 11.5 mph 19.6 mph N/A   Unknown
6:35 AM 46.4 °F 41.5 °F 21.2 °F 37% 30.15 in 10.0 mi South 10.4 mph 18.4 mph N/A   Unknown
6:55 AM 46.4 °F 40.7 °F 21.2 °F 37% 30.16 in 10.0 mi South 12.7 mph 17.3 mph N/A   Unknown
7:15 AM 46.4 °F 41.9 °F 21.2 °F 37% 30.15 in 10.0 mi SSE 9.2 mph 17.3 mph N/A   Unknown
8:35 AM 48.2 °F - 23.0 °F 37% 30.16 in 10.0 mi SSE 11.5 mph 17.3 mph N/A   Unknown
8:55 AM 48.2 °F - 23.0 °F 37% 30.16 in 10.0 mi South 10.4 mph 18.4 mph N/A   Unknown
9:15 AM 48.2 °F - 24.8 °F 40% 30.17 in 10.0 mi SSE 6.9 mph 17.3 mph N/A   Unknown
9:35 AM 48.2 °F - 24.8 °F 40% 30.17 in 10.0 mi SSE 8.1 mph - N/A   Unknown
9:55 AM 48.2 °F - 24.8 °F 40% 30.17 in 10.0 mi SSE 9.2 mph - N/A   Unknown
10:15 AM 50.0 °F - 24.8 °F 37% 30.17 in 10.0 mi South 9.2 mph 16.1 mph N/A   Unknown
10:35 AM 51.8 °F - 26.6 °F 38% 30.17 in 10.0 mi South 8.1 mph - N/A   Unknown
10:55 AM 53.6 °F - 24.8 °F 33% 30.17 in 10.0 mi SSE 9.2 mph - N/A   Unknown
11:15 AM 55.4 °F - 26.6 °F 33% 30.17 in 10.0 mi South 11.5 mph - N/A   Unknown
11:35 AM 53.6 °F - 26.6 °F 35% 30.17 in 10.0 mi South 9.2 mph - N/A   Unknown
11:55 AM 55.4 °F - 26.6 °F 33% 30.16 in 10.0 mi South 8.1 mph - N/A   Unknown
12:15 PM 55.4 °F - 24.8 °F 31% 30.16 in 10.0 mi South 6.9 mph - N/A   Unknown
12:35 PM 55.4 °F - 24.8 °F 31% 30.16 in 10.0 mi SSE 5.8 mph - N/A   Unknown
12:55 PM 57.2 °F - 26.6 °F 31% 30.16 in 10.0 mi SSE 8.1 mph - N/A   Unknown
1:15 PM 57.2 °F - 26.6 °F 31% 30.15 in 10.0 mi SSE 4.6 mph - N/A   Unknown
1:35 PM 59.0 °F - 28.4 °F 31% 30.15 in 10.0 mi South 8.1 mph - N/A   Unknown
1:55 PM 59.0 °F - 28.4 °F 31% 30.14 in 10.0 mi SSE 8.1 mph - N/A   Unknown
2:15 PM 60.8 °F - 28.4 °F 29% 30.12 in 10.0 mi South 6.9 mph - N/A   Unknown
2:35 PM 62.6 °F - 30.2 °F 30% 30.11 in 10.0 mi SSE 6.9 mph - N/A   Unknown
2:55 PM 60.8 °F - 30.2 °F 31% 30.11 in 10.0 mi South 9.2 mph - N/A   Unknown
3:15 PM 60.8 °F - 30.2 °F 31% 30.10 in 10.0 mi South 11.5 mph 18.4 mph N/A   Unknown
3:35 PM 62.6 °F - 30.2 °F 30% 30.10 in 10.0 mi South 12.7 mph - N/A   Unknown
3:55 PM 62.6 °F - 30.2 °F 30% 30.09 in 10.0 mi South 13.8 mph 17.3 mph N/A   Unknown
4:15 PM 62.6 °F - 30.2 °F 30% 30.09 in 10.0 mi South 11.5 mph 16.1 mph N/A   Unknown
4:35 PM 62.6 °F - 30.2 °F 30% 30.08 in 10.0 mi South 9.2 mph - N/A   Unknown
4:55 PM 60.8 °F - 28.4 °F 29% 30.08 in 10.0 mi South 12.7 mph - N/A   Unknown
5:15 PM 60.8 °F - 28.4 °F 29% 30.09 in 10.0 mi South 9.2 mph - N/A   Unknown
5:35 PM 60.8 °F - 30.2 °F 31% 30.08 in 10.0 mi South 9.2 mph - N/A   Unknown
5:55 PM 60.8 °F - 28.4 °F 29% 30.07 in 10.0 mi SSE 6.9 mph - N/A   Unknown
6:15 PM 60.8 °F - 28.4 °F 29% 30.05 in 10.0 mi SE 9.2 mph 16.1 mph N/A   Unknown
6:35 PM 60.8 °F - 28.4 °F 29% 30.04 in 10.0 mi SSE 9.2 mph - N/A   Unknown
6:55 PM 60.8 °F - 28.4 °F 29% 30.05 in 10.0 mi SSE 5.8 mph - N/A   Unknown
7:15 PM 59.0 °F - 30.2 °F 34% 30.07 in 10.0 mi South 4.6 mph - N/A   Unknown
7:35 PM 57.2 °F - 30.2 °F 36% 30.07 in 10.0 mi South 8.1 mph - N/A   Unknown
7:55 PM 57.2 °F - 28.4 °F 33% 30.06 in 10.0 mi SSE 10.4 mph - N/A   Unknown
8:15 PM 57.2 °F - 30.2 °F 36% 30.06 in 10.0 mi South 10.4 mph 17.3 mph N/A   Unknown
8:35 PM 55.4 °F - 30.2 °F 38% 30.08 in 10.0 mi South 8.1 mph - N/A   Unknown
8:55 PM 55.4 °F - 30.2 °F 38% 30.09 in 10.0 mi South 8.1 mph - N/A   Unknown
9:15 PM 55.4 °F - 30.2 °F 38% 30.08 in 10.0 mi South 11.5 mph - N/A   Unknown
9:35 PM 53.6 °F - 30.2 °F 41% 30.08 in 10.0 mi South 8.1 mph - N/A   Unknown
9:55 PM 53.6 °F - 30.2 °F 41% 30.06 in 10.0 mi SSE 8.1 mph - N/A   Unknown
10:15 PM 53.6 °F - 30.2 °F 41% 30.06 in 10.0 mi South 13.8 mph - N/A   Unknown
10:35 PM 53.6 °F - 30.2 °F 41% 30.06 in 10.0 mi SSW 5.8 mph - N/A   Unknown
10:55 PM 53.6 °F - 30.2 °F 41% 30.06 in 10.0 mi South 10.4 mph 18.4 mph N/A   Unknown
11:15 PM 53.6 °F - 30.2 °F 41% 30.05 in 10.0 mi South 11.5 mph 18.4 mph N/A   Unknown
11:35 PM 53.6 °F - 30.2 °F 41% 30.04 in 10.0 mi South 8.1 mph 19.6 mph N/A   Unknown
11:55 PM 53.6 °F - 30.2 °F 41% 30.03 in 10.0 mi South 11.5 mph 18.4 mph N/A   Unknown
12:15 AM 53.6 °F - 30.2 °F 41% 30.05 in 10.0 mi SW 6.9 mph 16.1 mph N/A   Unknown
12:35 AM 53.6 °F - 30.2 °F 41% 30.05 in 10.0 mi South 8.1 mph - N/A   Unknown
12:55 AM 53.6 °F - 30.2 °F 41% 30.03 in 10.0 mi SSE 3.5 mph - N/A   Unknown